createdAt,value
2023-05-09T00:00:46.525Z,101997.75
2023-05-09T00:03:14.268Z,101993.41
2023-05-09T00:05:41.750Z,101985.13
2023-05-09T00:08:08.232Z,101992.13
2023-05-09T00:10:34.794Z,101987.34
2023-05-09T00:13:01.342Z,101983.84
2023-05-09T00:15:28.882Z,101980.53
2023-05-09T00:17:55.550Z,101984.84
2023-05-09T00:20:22.153Z,101988.16
2023-05-09T00:22:48.616Z,101983.19
2023-05-09T00:25:15.378Z,101978.22
2023-05-09T00:27:42.044Z,101984.38
2023-05-09T00:30:09.081Z,101977.38
2023-05-09T00:32:35.914Z,101991.38
2023-05-09T00:35:02.951Z,101984.22
2023-05-09T00:37:30.965Z,101979.50
2023-05-09T00:39:57.430Z,101975.34
2023-05-09T00:42:23.869Z,101970.84
2023-05-09T00:44:50.375Z,101971.22
2023-05-09T00:47:16.949Z,101975.91
2023-05-09T00:49:43.553Z,101968.25
2023-05-09T00:52:10.056Z,101957.94
2023-05-09T00:54:36.711Z,101958.38
2023-05-09T00:57:03.408Z,101960.88
2023-05-09T00:59:30.249Z,101960.88
2023-05-09T01:01:56.855Z,101968.53
2023-05-09T01:04:23.914Z,101960.53
2023-05-09T01:07:16.833Z,101956.66
2023-05-09T01:10:19.616Z,101948.47
2023-05-09T01:12:46.036Z,101937.13
2023-05-09T01:15:17.238Z,101941.81
2023-05-09T01:17:49.629Z,101931.13
2023-05-09T01:20:24.149Z,101927.63
2023-05-09T01:23:05.308Z,101929.13
2023-05-09T01:25:44.866Z,101927.47
2023-05-09T01:28:36.471Z,101922.28
2023-05-09T01:31:06.191Z,101912.81
2023-05-09T01:33:36.447Z,101906.44
2023-05-09T01:36:08.116Z,101913.81
2023-05-09T01:38:38.686Z,101912.97
2023-05-09T01:41:07.419Z,101906.81
2023-05-09T01:43:37.353Z,101906.97
2023-05-09T01:46:05.614Z,101903.84
2023-05-09T01:48:36.198Z,101901.19
2023-05-09T01:51:05.738Z,101900.16
2023-05-09T01:53:33.939Z,101895.84
2023-05-09T01:56:01.933Z,101901.53
2023-05-09T01:58:29.956Z,101894.53
2023-05-09T02:00:56.745Z,101899.03
2023-05-09T02:03:24.579Z,101894.91
2023-05-09T02:05:52.177Z,101896.56
2023-05-09T02:08:21.238Z,101897.38
2023-05-09T02:10:49.387Z,101895.06
2023-05-09T02:13:16.227Z,101881.25
2023-05-09T02:15:43.915Z,101886.59
2023-05-09T02:18:10.967Z,101888.63
2023-05-09T02:20:37.581Z,101881.44
2023-05-09T02:23:04.838Z,101877.94
2023-05-09T02:25:33.251Z,101883.28
2023-05-09T02:28:01.265Z,101875.28
2023-05-09T02:30:33.435Z,101870.66
2023-05-09T02:33:04.955Z,101870.00
2023-05-09T02:35:31.958Z,101878.19
2023-05-09T02:38:00.168Z,101866.03
2023-05-09T02:40:29.454Z,101868.72
2023-05-09T02:42:56.813Z,101862.88
2023-05-09T02:45:23.452Z,101879.75
2023-05-09T02:47:50.124Z,101866.56
2023-05-09T02:50:16.744Z,101867.78
2023-05-09T02:52:43.254Z,101875.41
2023-05-09T02:55:10.213Z,101863.44
2023-05-09T02:57:36.823Z,101858.25
2023-05-09T03:00:04.478Z,101854.13
2023-05-09T03:02:31.131Z,101855.78
2023-05-09T03:04:57.710Z,101856.81
2023-05-09T03:07:24.178Z,101856.16
2023-05-09T03:09:50.824Z,101847.66
2023-05-09T03:12:17.276Z,101844.19
2023-05-09T03:14:43.750Z,101841.66
2023-05-09T03:17:10.187Z,101834.22
2023-05-09T03:19:36.693Z,101834.22
2023-05-09T03:22:03.217Z,101833.22
2023-05-09T03:24:29.929Z,101828.88
2023-05-09T03:26:56.422Z,101830.19
2023-05-09T03:29:22.888Z,101819.88
2023-05-09T03:31:49.416Z,101820.50
2023-05-09T03:34:16.068Z,101819.66
2023-05-09T03:36:45.831Z,101822.81
2023-05-09T03:39:12.405Z,101808.63
2023-05-09T03:41:38.935Z,101809.13
2023-05-09T03:44:06.114Z,101791.44
2023-05-09T03:46:32.622Z,101794.41
2023-05-09T03:48:59.137Z,101792.53
2023-05-09T03:51:25.777Z,101782.34
2023-05-09T03:53:52.284Z,101779.69
2023-05-09T03:56:18.742Z,101784.00
2023-05-09T03:58:45.254Z,101780.31
2023-05-09T04:01:11.845Z,101765.75
2023-05-09T04:03:38.442Z,101766.63
2023-05-09T04:06:05.653Z,101758.78
2023-05-09T04:08:32.744Z,101757.97
2023-05-09T04:10:59.240Z,101762.94
2023-05-09T04:13:25.925Z,101764.75
2023-05-09T04:15:52.540Z,101769.09
2023-05-09T04:18:19.014Z,101764.75
2023-05-09T04:20:45.465Z,101767.91
2023-05-09T04:23:11.971Z,101764.38
2023-05-09T04:25:38.498Z,101765.69
2023-05-09T04:28:05.021Z,101766.06
2023-05-09T04:30:31.519Z,101764.50
2023-05-09T04:32:58.114Z,101775.81
2023-05-09T04:35:24.667Z,101769.47
2023-05-09T04:37:51.825Z,101765.16
2023-05-09T04:40:18.614Z,101757.13
2023-05-09T04:42:45.211Z,101756.78
2023-05-09T04:45:12.006Z,101746.09
2023-05-09T04:47:38.761Z,101739.91
2023-05-09T04:50:05.954Z,101748.38
2023-05-09T04:52:32.503Z,101743.06
2023-05-09T04:54:58.956Z,101744.72
2023-05-09T04:57:25.810Z,101734.66
2023-05-09T04:59:52.945Z,101735.47
2023-05-09T05:02:19.515Z,101725.66
2023-05-09T05:04:46.060Z,101736.59
2023-05-09T05:07:12.512Z,101727.75
2023-05-09T05:09:38.967Z,101734.38
2023-05-09T05:12:09.147Z,101734.00
2023-05-09T05:14:36.146Z,101731.81
2023-05-09T05:17:02.741Z,101711.88
2023-05-09T05:19:29.282Z,101717.69
2023-05-09T05:21:55.753Z,101701.47
2023-05-09T05:24:22.230Z,101705.88
2023-05-09T05:26:49.143Z,101709.19
2023-05-09T05:29:15.652Z,101693.66
2023-05-09T05:31:42.168Z,101687.53
2023-05-09T05:34:08.858Z,101683.66
2023-05-09T05:36:35.421Z,101691.75
2023-05-09T05:39:01.896Z,101684.00
2023-05-09T05:41:28.366Z,101681.97
2023-05-09T05:43:54.854Z,101681.00
2023-05-09T05:46:21.483Z,101686.03
2023-05-09T05:48:48.103Z,101679.47
2023-05-09T05:51:14.578Z,101689.03
2023-05-09T05:53:41.098Z,101675.28
2023-05-09T05:56:07.936Z,101677.16
2023-05-09T05:58:34.452Z,101675.78
2023-05-09T06:01:02.041Z,101672.72
2023-05-09T06:03:28.617Z,101669.00
2023-05-09T06:05:55.927Z,101671.31
2023-05-09T06:08:22.468Z,101668.88
2023-05-09T06:10:48.920Z,101672.19
2023-05-09T06:13:15.486Z,101664.53
2023-05-09T06:15:41.977Z,101664.38
2023-05-09T06:18:09.063Z,101649.34
2023-05-09T06:20:36.083Z,101654.72
2023-05-09T06:23:02.527Z,101643.00
2023-05-09T06:25:29.027Z,101647.97
2023-05-09T06:27:55.576Z,101648.81
2023-05-09T06:30:26.489Z,101637.66
2023-05-09T06:32:58.108Z,101647.56
2023-05-09T06:35:24.716Z,101630.50
2023-05-09T06:37:51.242Z,101633.16
2023-05-09T06:40:17.763Z,101621.66
2023-05-09T06:42:44.967Z,101619.78
2023-05-09T06:45:12.007Z,101625.38
2023-05-09T06:47:38.602Z,101616.31
2023-05-09T06:50:05.790Z,101610.97
2023-05-09T06:52:32.300Z,101615.94
2023-05-09T06:54:58.725Z,101614.28
2023-05-09T06:57:25.388Z,101607.72
2023-05-09T06:59:51.862Z,101603.81
2023-05-09T07:02:18.332Z,101608.16
2023-05-09T07:04:44.852Z,101607.75
2023-05-09T07:07:11.330Z,101600.56
2023-05-09T07:09:37.817Z,101600.56
2023-05-09T07:12:04.601Z,101601.19
2023-05-09T07:14:31.110Z,101599.31
2023-05-09T07:17:09.951Z,101590.13
2023-05-09T07:19:41.261Z,101595.25
2023-05-09T07:22:07.824Z,101586.22
2023-05-09T07:24:34.392Z,101588.88
2023-05-09T07:27:03.695Z,101580.03
2023-05-09T07:29:31.379Z,101587.47
2023-05-09T07:31:57.938Z,101594.66
2023-05-09T07:34:25.453Z,101586.00
2023-05-09T07:36:52.109Z,101583.47
2023-05-09T07:39:18.589Z,101584.69
2023-05-09T07:41:45.988Z,101580.81
2023-05-09T07:44:14.157Z,101576.63
2023-05-09T07:46:42.093Z,101577.03
2023-05-09T07:49:08.980Z,101572.38
2023-05-09T07:51:35.654Z,101577.53
2023-05-09T07:54:02.104Z,101572.31
2023-05-09T07:56:28.603Z,101568.59
2023-05-09T07:58:55.882Z,101577.25
2023-05-09T08:01:22.495Z,101569.03
2023-05-09T08:03:49.121Z,101555.63
2023-05-09T08:06:15.891Z,101554.16
2023-05-09T08:08:42.346Z,101547.16
2023-05-09T08:11:08.835Z,101552.31
2023-05-09T08:13:36.156Z,101548.78
2023-05-09T08:16:02.946Z,101548.72
2023-05-09T08:18:29.533Z,101540.94
2023-05-09T08:20:56.095Z,101536.03
2023-05-09T08:23:22.545Z,101530.06
2023-05-09T08:25:56.496Z,101538.72
2023-05-09T08:28:28.612Z,101534.78
2023-05-09T08:30:56.833Z,101527.75
2023-05-09T08:33:24.135Z,101522.81
2023-05-09T08:35:52.029Z,101521.56
2023-05-09T08:38:18.733Z,101525.50
2023-05-09T08:40:45.494Z,101518.91
2023-05-09T08:43:12.944Z,101516.22
2023-05-09T08:45:46.018Z,101516.84
2023-05-09T08:48:15.283Z,101508.19
2023-05-09T08:50:42.092Z,101516.00
2023-05-09T08:53:09.086Z,101509.78
2023-05-09T08:55:36.046Z,101514.09
2023-05-09T08:58:04.149Z,101505.06
2023-05-09T09:00:32.253Z,101496.41
2023-05-09T09:03:01.619Z,101496.63
2023-05-09T09:08:03.555Z,101489.06
2023-05-09T09:10:32.680Z,101493.59
2023-05-09T09:13:01.033Z,101490.50
2023-05-09T09:15:35.881Z,101489.69
2023-05-09T09:18:10.080Z,101490.53
2023-05-09T09:20:49.910Z,101482.47
2023-05-09T09:23:21.014Z,101491.34
2023-05-09T09:25:48.328Z,101492.13
2023-05-09T09:28:15.481Z,101485.34
2023-05-09T09:30:47.603Z,101483.47
2023-05-09T09:33:25.789Z,101473.00
2023-05-09T09:35:54.392Z,101474.19
2023-05-09T09:38:23.400Z,101480.81
2023-05-09T09:40:57.131Z,101471.13
2023-05-09T09:43:32.750Z,101470.31
2023-05-09T09:46:03.826Z,101466.00
2023-05-09T09:48:33.956Z,101466.41
2023-05-09T09:51:18.783Z,101470.97
2023-05-09T09:53:45.548Z,101465.84
2023-05-09T09:56:12.238Z,101469.53
2023-05-09T09:58:39.273Z,101455.13
2023-05-09T10:01:08.656Z,101464.97
2023-05-09T10:03:39.103Z,101468.06
2023-05-09T10:06:06.392Z,101466.75
2023-05-09T10:08:32.928Z,101459.03
2023-05-09T10:10:59.929Z,101459.28
2023-05-09T10:13:28.200Z,101453.75
2023-05-09T10:15:56.059Z,101458.53
2023-05-09T10:18:30.035Z,101452.81
2023-05-09T10:21:01.972Z,101466.63
2023-05-09T10:23:30.464Z,101448.56
2023-05-09T10:26:20.989Z,101449.22
2023-05-09T10:28:49.872Z,101443.44
2023-05-09T10:31:23.675Z,101440.56
2023-05-09T10:33:51.377Z,101439.31
2023-05-09T10:36:22.255Z,101437.28
2023-05-09T10:38:49.366Z,101443.84
2023-05-09T10:41:22.106Z,101434.56
2023-05-09T10:43:49.226Z,101429.44
2023-05-09T10:46:16.594Z,101430.25
2023-05-09T10:48:44.021Z,101422.22
2023-05-09T10:51:11.988Z,101425.50
2023-05-09T10:53:42.509Z,101413.78
2023-05-09T10:56:09.127Z,101414.19
2023-05-09T10:58:37.581Z,101404.09
2023-05-09T11:01:05.159Z,101404.72
2023-05-09T11:03:57.393Z,101399.38
2023-05-09T11:06:45.684Z,101403.25
2023-05-09T11:09:35.379Z,101396.47
2023-05-09T11:12:11.216Z,101391.72
2023-05-09T11:14:37.982Z,101387.38
2023-05-09T11:17:10.679Z,101390.91
2023-05-09T11:19:58.230Z,101383.72
2023-05-09T11:22:29.024Z,101386.41
2023-05-09T11:25:14.095Z,101371.56
2023-05-09T11:27:46.123Z,101383.69
2023-05-09T11:30:17.770Z,101368.44
2023-05-09T11:32:51.821Z,101374.41
2023-05-09T11:35:20.882Z,101359.00
2023-05-09T11:37:52.437Z,101367.44
2023-05-09T11:40:21.199Z,101360.25
2023-05-09T11:42:50.436Z,101355.72
2023-05-09T11:45:18.026Z,101361.69
2023-05-09T11:47:46.070Z,101356.13
2023-05-09T11:50:14.159Z,101351.41
2023-05-09T11:52:41.869Z,101352.41
2023-05-09T11:55:19.765Z,101359.03
2023-05-09T11:57:51.877Z,101345.00
2023-05-09T12:00:26.169Z,101340.25
2023-05-09T12:02:53.836Z,101348.47
2023-05-09T12:05:21.879Z,101350.13
2023-05-09T12:07:48.836Z,101344.94
2023-05-09T12:10:20.653Z,101337.09
2023-05-09T12:12:48.995Z,101338.97
2023-05-09T12:15:17.260Z,101334.59
2023-05-09T12:17:45.204Z,101321.63
2023-05-09T12:20:12.796Z,101339.34
2023-05-09T12:22:44.062Z,101333.97
2023-05-09T12:25:12.173Z,101330.69
2023-05-09T12:27:41.169Z,101327.66
2023-05-09T12:30:10.620Z,101316.53
2023-05-09T12:32:40.162Z,101324.97
2023-05-09T12:35:08.717Z,101312.44
2023-05-09T12:37:35.338Z,101313.88
2023-05-09T12:40:04.191Z,101311.81
2023-05-09T12:42:32.120Z,101310.00
2023-05-09T12:44:58.927Z,101307.09
2023-05-09T12:47:32.112Z,101304.59
2023-05-09T12:50:03.534Z,101305.44
2023-05-09T12:52:46.944Z,101300.91
2023-05-09T12:55:24.874Z,101292.69
2023-05-09T12:57:59.896Z,101284.91
2023-05-09T13:00:26.555Z,101280.81
2023-05-09T13:02:53.425Z,101294.78
2023-05-09T13:05:22.227Z,101286.97
2023-05-09T13:07:52.598Z,101284.09
2023-05-09T13:10:31.111Z,101275.66
2023-05-09T13:12:57.823Z,101266.81
2023-05-09T13:15:26.779Z,101267.03
2023-05-09T13:17:54.334Z,101274.84
2023-05-09T13:20:21.383Z,101271.59
2023-05-09T13:22:47.922Z,101266.63
2023-05-09T13:25:16.073Z,101251.59
2023-05-09T13:27:42.619Z,101255.13
2023-05-09T13:30:09.428Z,101256.94
2023-05-09T13:32:38.804Z,101243.34
2023-05-09T13:35:07.968Z,101252.38
2023-05-09T13:37:35.162Z,101249.72
2023-05-09T13:40:02.713Z,101243.34
2023-05-09T13:42:29.147Z,101234.69
2023-05-09T13:44:55.657Z,101239.63
2023-05-09T13:47:22.454Z,101239.41
2023-05-09T13:49:48.963Z,101239.81
2023-05-09T13:52:16.460Z,101240.03
2023-05-09T13:54:43.306Z,101240.03
2023-05-09T13:57:10.379Z,101238.00
2023-05-09T13:59:37.342Z,101225.22
2023-05-09T14:02:04.471Z,101228.91
2023-05-09T14:04:33.865Z,101229.34
2023-05-09T14:07:01.327Z,101233.22
2023-05-09T14:09:29.096Z,101232.59
2023-05-09T14:11:57.117Z,101230.56
2023-05-09T14:14:25.454Z,101227.25
2023-05-09T14:16:52.243Z,101214.88
2023-05-09T14:19:18.837Z,101230.75
2023-05-09T14:21:48.426Z,101218.63
2023-05-09T14:24:16.372Z,101213.25
2023-05-09T14:26:43.308Z,101205.66
2023-05-09T14:29:10.012Z,101205.44
2023-05-09T14:31:37.010Z,101204.03
2023-05-09T14:34:05.237Z,101208.13
2023-05-09T14:36:34.905Z,101196.19
2023-05-09T14:39:01.507Z,101203.38
2023-05-09T14:41:28.135Z,101202.56
2023-05-09T14:43:54.698Z,101194.53
2023-05-09T14:46:21.320Z,101192.25
2023-05-09T14:48:47.803Z,101183.44
2023-05-09T14:51:14.400Z,101182.81
2023-05-09T14:53:41.844Z,101179.28
2023-05-09T14:56:11.248Z,101178.28
2023-05-09T14:58:38.041Z,101187.72
2023-05-09T15:01:04.675Z,101184.47
2023-05-09T15:03:31.758Z,101183.03
2023-05-09T15:05:59.031Z,101168.41
2023-05-09T15:08:26.076Z,101172.31
2023-05-09T15:10:52.887Z,101169.66
2023-05-09T15:13:19.561Z,101160.38
2023-05-09T15:15:46.227Z,101156.88
2023-05-09T15:18:15.472Z,101164.72
2023-05-09T15:20:42.526Z,101158.53
2023-05-09T15:23:09.180Z,101161.41
2023-05-09T15:25:35.823Z,101151.75
2023-05-09T15:28:02.564Z,101156.06
2023-05-09T15:30:29.218Z,101154.44
2023-05-09T15:32:56.163Z,101144.94
2023-05-09T15:35:22.785Z,101149.28
2023-05-09T15:37:49.554Z,101147.22
2023-05-09T15:40:16.262Z,101140.44
2023-05-09T15:42:43.287Z,101142.47
2023-05-09T15:45:10.018Z,101142.06
2023-05-09T15:47:36.699Z,101148.44
2023-05-09T15:50:03.430Z,101145.38
2023-05-09T15:52:30.145Z,101145.78
2023-05-09T15:54:56.824Z,101143.72
2023-05-09T15:57:23.591Z,101138.38
2023-05-09T15:59:50.024Z,101131.16
2023-05-09T16:02:16.866Z,101134.25
2023-05-09T16:04:44.216Z,101129.53
2023-05-09T16:07:11.244Z,101140.22
2023-05-09T16:09:38.332Z,101133.84
2023-05-09T16:12:05.502Z,101130.34
2023-05-09T16:14:32.201Z,101127.06
2023-05-09T16:16:58.949Z,101119.63
2023-05-09T16:19:25.531Z,101122.09
2023-05-09T16:21:52.450Z,101121.88
2023-05-09T16:24:19.011Z,101124.38
2023-05-09T16:26:45.600Z,101124.78
2023-05-09T16:29:12.873Z,101121.47
2023-05-09T16:31:39.470Z,101109.13
2023-05-09T16:34:06.481Z,101112.44
2023-05-09T16:36:33.520Z,101101.13
2023-05-09T16:39:00.056Z,101107.69
2023-05-09T16:41:27.129Z,101107.31
2023-05-09T16:43:53.799Z,101105.44
2023-05-09T16:46:20.701Z,101099.06
2023-05-09T16:48:47.386Z,101102.97
2023-05-09T16:51:13.862Z,101096.22
2023-05-09T16:53:40.405Z,101092.69
2023-05-09T16:56:07.945Z,101099.50
2023-05-09T16:58:36.593Z,101091.47
2023-05-09T17:01:03.735Z,101086.13
2023-05-09T17:03:30.963Z,101086.34
2023-05-09T17:05:57.456Z,101093.75
2023-05-09T17:08:24.065Z,101089.81
2023-05-09T17:10:50.790Z,101077.28
2023-05-09T17:13:17.328Z,101079.13
2023-05-09T17:15:44.427Z,101091.06
2023-05-09T17:18:12.340Z,101079.34
2023-05-09T17:20:40.486Z,101071.94
2023-05-09T17:23:07.012Z,101075.00
2023-05-09T17:25:33.562Z,101076.03
2023-05-09T17:28:00.299Z,101072.34
2023-05-09T17:30:27.485Z,101072.56
2023-05-09T17:32:54.089Z,101068.44
2023-05-09T17:35:22.491Z,101065.56
2023-05-09T17:37:49.000Z,101065.56
2023-05-09T17:40:15.713Z,101071.72
2023-05-09T17:42:42.334Z,101064.13
2023-05-09T17:45:12.096Z,101074.63
2023-05-09T17:47:39.264Z,101068.03
2023-05-09T17:50:07.313Z,101073.78
2023-05-09T17:52:34.127Z,101065.13
2023-05-09T17:55:01.736Z,101075.03
2023-05-09T17:57:28.793Z,101073.97
2023-05-09T17:59:55.397Z,101067.19
2023-05-09T18:02:24.333Z,101072.56
2023-05-09T18:04:51.539Z,101077.47
2023-05-09T18:07:18.163Z,101067.59
2023-05-09T18:09:44.791Z,101070.06
2023-05-09T18:12:11.584Z,101064.31
2023-05-09T18:14:39.252Z,101069.25
2023-05-09T18:17:05.830Z,101070.06
2023-05-09T18:19:33.181Z,101061.03
2023-05-09T18:21:59.723Z,101075.00
2023-05-09T18:24:26.175Z,101061.44
2023-05-09T18:26:52.799Z,101065.50
2023-05-09T18:29:19.571Z,101059.94
2023-05-09T18:31:46.285Z,101063.03
2023-05-09T18:34:12.989Z,101066.53
2023-05-09T18:36:39.521Z,101067.34
2023-05-09T18:39:06.158Z,101072.47
2023-05-09T18:41:34.005Z,101067.56
2023-05-09T18:44:00.513Z,101059.75
2023-05-09T18:46:27.954Z,101069.00
2023-05-09T18:48:54.919Z,101068.78
2023-05-09T18:51:21.539Z,101067.97
2023-05-09T18:53:48.530Z,101057.28
2023-05-09T18:56:16.156Z,101072.69
2023-05-09T18:58:42.722Z,101072.69
2023-05-09T19:01:11.558Z,101063.44
2023-05-09T19:03:45.687Z,101070.22
2023-05-09T19:06:13.839Z,101060.16
2023-05-09T19:08:42.337Z,101064.25
2023-05-09T19:11:09.907Z,101065.09
2023-05-09T19:13:38.495Z,101059.72
2023-05-09T19:16:07.026Z,101071.25
2023-05-09T19:18:34.209Z,101062.41
2023-05-09T19:21:01.649Z,101063.25
2023-05-09T19:23:28.347Z,101074.72
2023-05-09T19:25:55.476Z,101067.97
2023-05-09T19:28:22.979Z,101070.41
2023-05-09T19:30:50.574Z,101083.59
2023-05-09T19:33:17.403Z,101076.78
2023-05-09T19:35:44.432Z,101090.09
2023-05-09T19:38:12.081Z,101081.88
2023-05-09T19:40:39.930Z,101092.16
2023-05-09T19:43:06.760Z,101081.88
2023-05-09T19:45:33.234Z,101099.31
2023-05-09T19:47:59.804Z,101094.81
2023-05-09T19:50:26.515Z,101094.38
2023-05-09T19:52:53.154Z,101097.03
2023-05-09T19:55:19.746Z,101093.13
2023-05-09T19:57:46.748Z,101099.91
2023-05-09T20:00:13.984Z,101094.94
2023-05-09T20:02:40.892Z,101101.75
2023-05-09T20:05:07.928Z,101094.78
2023-05-09T20:07:34.376Z,101100.28
2023-05-09T20:10:01.009Z,101104.81
2023-05-09T20:12:30.080Z,101106.88
2023-05-09T20:14:56.947Z,101107.88
2023-05-09T20:17:23.665Z,101110.97
2023-05-09T20:19:50.197Z,101108.25
2023-05-09T20:22:16.905Z,101109.47
2023-05-09T20:24:43.433Z,101110.28
2023-05-09T20:27:09.956Z,101128.09
2023-05-09T20:29:36.476Z,101108.78
2023-05-09T20:32:03.300Z,101121.50
2023-05-09T20:34:29.882Z,101126.19
2023-05-09T20:36:56.479Z,101122.28
2023-05-09T20:39:23.238Z,101122.66
2023-05-09T20:41:50.541Z,101116.66
2023-05-09T20:44:18.113Z,101120.16
2023-05-09T20:46:45.354Z,101121.97
2023-05-09T20:49:12.005Z,101121.97
2023-05-09T20:51:38.766Z,101126.28
2023-05-09T20:54:05.780Z,101124.63
2023-05-09T20:56:33.607Z,101136.31
2023-05-09T20:59:01.114Z,101139.38
2023-05-09T21:01:27.686Z,101131.53
2023-05-09T21:03:54.270Z,101131.38
2023-05-09T21:06:20.751Z,101136.88
2023-05-09T21:08:47.487Z,101126.44
2023-05-09T21:11:13.961Z,101129.09
2023-05-09T21:13:40.555Z,101128.06
2023-05-09T21:16:07.120Z,101129.91
2023-05-09T21:18:33.585Z,101130.34
2023-05-09T21:21:05.719Z,101126.66
2023-05-09T21:23:32.162Z,101134.47
2023-05-09T21:25:58.624Z,101127.88
2023-05-09T21:28:25.501Z,101127.28
2023-05-09T21:30:53.312Z,101118.84
2023-05-09T21:33:20.578Z,101113.34
2023-05-09T21:35:47.478Z,101112.31
2023-05-09T21:38:14.389Z,101112.72
2023-05-09T21:40:41.258Z,101100.00
2023-05-09T21:43:07.728Z,101110.28
2023-05-09T21:45:34.210Z,101104.72
2023-05-09T21:48:00.888Z,101108.63
2023-05-09T21:50:27.422Z,101109.03
2023-05-09T21:52:56.156Z,101111.28
2023-05-09T21:55:22.910Z,101099.16
2023-05-09T21:57:49.388Z,101098.97
2023-05-09T22:00:16.894Z,101104.09
2023-05-09T22:02:43.882Z,101103.72
2023-05-09T22:05:11.135Z,101101.03
2023-05-09T22:07:37.732Z,101094.28
2023-05-09T22:10:05.047Z,101088.50
2023-05-09T22:12:31.735Z,101098.59
2023-05-09T22:14:58.251Z,101102.06
2023-05-09T22:17:24.866Z,101096.31
2023-05-09T22:19:52.017Z,101093.81
2023-05-09T22:22:19.098Z,101087.06
2023-05-09T22:24:45.564Z,101084.81
2023-05-09T22:27:12.166Z,101087.28
2023-05-09T22:29:38.853Z,101077.63
2023-05-09T22:32:07.753Z,101088.09
2023-05-09T22:34:35.399Z,101096.72
2023-05-09T22:37:01.847Z,101089.56
2023-05-09T22:39:28.347Z,101086.06
2023-05-09T22:41:54.869Z,101082.59
2023-05-09T22:44:21.840Z,101085.25
2023-05-09T22:46:48.358Z,101087.06
2023-05-09T22:49:14.851Z,101089.13
2023-05-09T22:51:41.354Z,101078.66
2023-05-09T22:54:08.408Z,101084.00
2023-05-09T22:56:34.903Z,101077.41
2023-05-09T22:59:01.351Z,101076.56
2023-05-09T23:01:27.886Z,101087.06
2023-05-09T23:03:54.329Z,101089.72
2023-05-09T23:06:20.890Z,101090.09
2023-05-09T23:08:47.477Z,101092.16
2023-05-09T23:11:14.052Z,101088.59
2023-05-09T23:13:40.641Z,101088.13
2023-05-09T23:16:07.334Z,101086.31
2023-05-09T23:18:33.821Z,101090.63
2023-05-09T23:21:00.316Z,101086.75
2023-05-09T23:23:27.159Z,101077.47
2023-05-09T23:25:53.686Z,101079.31
2023-05-09T23:28:24.914Z,101092.03
2023-05-09T23:30:53.298Z,101084.81
2023-05-09T23:33:19.956Z,101091.78
2023-05-09T23:35:47.830Z,101091.97
2023-05-09T23:38:14.396Z,101086.84
2023-05-09T23:40:44.120Z,101084.78
2023-05-09T23:43:10.567Z,101076.94
2023-05-09T23:45:37.043Z,101084.56
2023-05-09T23:48:04.478Z,101077.16
2023-05-09T23:50:31.021Z,101084.94
2023-05-09T23:52:57.511Z,101079.19
2023-05-09T23:55:23.938Z,101079.19
2023-05-09T23:57:50.483Z,101081.47
